sensor_id;sensor_type;location;lat;lon;timestamp;P1;durP1;ratioP1;P2;durP2;ratioP2
39822;SDS011;25499;53.958;10.970;2023-06-04T05:30:56;3.22;;;2.33;;
39822;SDS011;25499;53.958;10.970;2023-06-04T05:33:24;4.72;;;2.80;;
39822;SDS011;25499;53.958;10.970;2023-06-04T05:35:50;3.30;;;2.30;;
39822;SDS011;25499;53.958;10.970;2023-06-04T05:38:19;6.32;;;2.60;;
39822;SDS011;25499;53.958;10.970;2023-06-04T05:40:46;3.17;;;2.40;;
39822;SDS011;25499;53.958;10.970;2023-06-04T05:43:13;3.08;;;2.30;;
39822;SDS011;25499;53.958;10.970;2023-06-04T05:45:39;2.65;;;2.38;;
39822;SDS011;25499;53.958;10.970;2023-06-04T05:48:07;3.45;;;2.25;;
39822;SDS011;25499;53.958;10.970;2023-06-04T05:50:34;4.30;;;2.10;;
39822;SDS011;25499;53.958;10.970;2023-06-04T05:53:01;3.25;;;2.28;;
39822;SDS011;25499;53.958;10.970;2023-06-04T05:55:28;4.43;;;2.20;;
39822;SDS011;25499;53.958;10.970;2023-06-04T05:57:54;10.38;;;2.70;;
39822;SDS011;25499;53.958;10.970;2023-06-04T06:00:22;5.80;;;2.22;;
39822;SDS011;25499;53.958;10.970;2023-06-04T06:02:49;5.47;;;2.30;;
39822;SDS011;25499;53.958;10.970;2023-06-04T06:05:19;6.35;;;2.35;;
39822;SDS011;25499;53.958;10.970;2023-06-04T06:07:47;6.47;;;2.83;;
39822;SDS011;25499;53.958;10.970;2023-06-04T06:10:13;6.78;;;2.67;;
39822;SDS011;25499;53.958;10.970;2023-06-04T06:12:40;6.28;;;2.50;;
39822;SDS011;25499;53.958;10.970;2023-06-04T06:15:08;6.80;;;2.47;;
39822;SDS011;25499;53.958;10.970;2023-06-04T06:17:35;7.32;;;2.55;;
39822;SDS011;25499;53.958;10.970;2023-06-04T06:20:04;9.15;;;2.60;;
39822;SDS011;25499;53.958;10.970;2023-06-04T06:22:33;6.63;;;2.63;;
39822;SDS011;25499;53.958;10.970;2023-06-04T06:25:00;4.82;;;2.40;;
39822;SDS011;25499;53.958;10.970;2023-06-04T06:27:27;5.05;;;2.35;;
39822;SDS011;25499;53.958;10.970;2023-06-04T06:29:54;8.40;;;2.90;;
39822;SDS011;25499;53.958;10.970;2023-06-04T06:32:22;11.38;;;2.72;;
39822;SDS011;25499;53.958;10.970;2023-06-04T06:34:48;6.80;;;2.65;;
39822;SDS011;25499;53.958;10.970;2023-06-04T06:37:18;7.22;;;2.65;;
39822;SDS011;25499;53.958;10.970;2023-06-04T06:39:46;8.45;;;2.53;;
39822;SDS011;25499;53.958;10.970;2023-06-04T06:42:13;8.05;;;2.63;;
39822;SDS011;25499;53.958;10.970;2023-06-04T06:44:42;6.85;;;2.33;;
39822;SDS011;25499;53.958;10.970;2023-06-04T06:47:09;8.68;;;2.50;;
39822;SDS011;25499;53.958;10.970;2023-06-04T06:49:38;6.00;;;2.20;;
39822;SDS011;25499;53.958;10.970;2023-06-04T06:52:05;6.78;;;2.50;;
39822;SDS011;25499;53.958;10.970;2023-06-04T06:54:32;8.40;;;2.70;;
39822;SDS011;25499;53.958;10.970;2023-06-04T06:57:00;6.97;;;2.45;;
39822;SDS011;25499;53.958;10.970;2023-06-04T06:59:28;7.68;;;2.50;;
39822;SDS011;25499;53.958;10.970;2023-06-04T07:01:54;8.63;;;2.40;;
39822;SDS011;25499;53.958;10.970;2023-06-04T07:04:21;8.90;;;2.67;;
39822;SDS011;25499;53.958;10.970;2023-06-04T07:06:48;8.63;;;2.38;;
39822;SDS011;25499;53.958;10.970;2023-06-04T07:09:14;7.63;;;2.60;;
39822;SDS011;25499;53.958;10.970;2023-06-04T07:11:41;7.60;;;2.45;;
39822;SDS011;25499;53.958;10.970;2023-06-04T07:14:09;8.80;;;3.20;;
39822;SDS011;25499;53.958;10.970;2023-06-04T07:16:36;5.85;;;2.30;;
39822;SDS011;25499;53.958;10.970;2023-06-04T07:19:03;7.00;;;2.17;;
39822;SDS011;25499;53.958;10.970;2023-06-04T07:21:29;8.48;;;2.10;;
39822;SDS011;25499;53.958;10.970;2023-06-04T07:23:56;8.43;;;2.65;;
39822;SDS011;25499;53.958;10.970;2023-06-04T07:26:23;10.02;;;2.67;;
39822;SDS011;25499;53.958;10.970;2023-06-04T07:28:51;9.63;;;2.40;;
39822;SDS011;25499;53.958;10.970;2023-06-04T07:31:19;7.65;;;2.47;;
39822;SDS011;25499;53.958;10.970;2023-06-04T07:33:45;7.10;;;2.38;;
39822;SDS011;25499;53.958;10.970;2023-06-04T07:36:12;6.93;;;2.17;;
39822;SDS011;25499;53.958;10.970;2023-06-04T07:38:39;7.25;;;2.33;;
39822;SDS011;25499;53.958;10.970;2023-06-04T07:41:06;7.63;;;2.72;;
39822;SDS011;25499;53.958;10.970;2023-06-04T07:43:33;7.78;;;2.33;;
39822;SDS011;25499;53.958;10.970;2023-06-04T07:46:01;10.23;;;2.70;;
39822;SDS011;25499;53.958;10.970;2023-06-04T07:48:29;5.43;;;2.33;;
39822;SDS011;25499;53.958;10.970;2023-06-04T07:50:56;6.82;;;2.47;;
39822;SDS011;25499;53.958;10.970;2023-06-04T07:53:23;6.03;;;2.10;;
39822;SDS011;25499;53.958;10.970;2023-06-04T07:55:53;7.55;;;1.90;;
39822;SDS011;25499;53.958;10.970;2023-06-04T07:58:29;5.63;;;1.80;;
39822;SDS011;25499;53.958;10.970;2023-06-04T08:00:59;5.93;;;2.13;;
39822;SDS011;25499;53.958;10.970;2023-06-04T08:03:26;6.75;;;1.77;;
39822;SDS011;25499;53.958;10.970;2023-06-04T08:05:54;6.25;;;1.70;;
39822;SDS011;25499;53.958;10.970;2023-06-04T08:08:20;8.05;;;1.70;;
39822;SDS011;25499;53.958;10.970;2023-06-04T08:10:47;7.18;;;1.85;;
39822;SDS011;25499;53.958;10.970;2023-06-04T08:13:14;5.35;;;1.70;;
39822;SDS011;25499;53.958;10.970;2023-06-04T08:15:41;6.35;;;1.77;;
39822;SDS011;25499;53.958;10.970;2023-06-04T08:18:08;7.00;;;1.73;;
39822;SDS011;25499;53.958;10.970;2023-06-04T08:20:35;6.05;;;1.73;;
39822;SDS011;25499;53.958;10.970;2023-06-04T08:23:03;5.00;;;1.75;;
39822;SDS011;25499;53.958;10.970;2023-06-04T08:25:30;3.72;;;1.33;;
39822;SDS011;25499;53.958;10.970;2023-06-04T08:27:57;4.97;;;1.23;;
39822;SDS011;25499;53.958;10.970;2023-06-04T08:30:24;4.88;;;1.20;;
39822;SDS011;25499;53.958;10.970;2023-06-04T08:32:52;5.07;;;1.27;;
39822;SDS011;25499;53.958;10.970;2023-06-04T08:35:19;6.63;;;1.45;;
39822;SDS011;25499;53.958;10.970;2023-06-04T08:37:46;3.38;;;1.40;;
39822;SDS011;25499;53.958;10.970;2023-06-04T08:40:14;5.90;;;1.63;;
39822;SDS011;25499;53.958;10.970;2023-06-04T08:42:41;4.30;;;1.52;;
39822;SDS011;25499;53.958;10.970;2023-06-04T08:45:10;4.13;;;1.45;;
39822;SDS011;25499;53.958;10.970;2023-06-04T08:47:39;3.60;;;1.30;;
39822;SDS011;25499;53.958;10.970;2023-06-04T08:50:09;5.05;;;1.60;;
39822;SDS011;25499;53.958;10.970;2023-06-04T08:52:38;5.22;;;1.25;;
39822;SDS011;25499;53.958;10.970;2023-06-04T08:55:06;4.78;;;1.40;;
39822;SDS011;25499;53.958;10.970;2023-06-04T08:57:36;5.90;;;1.30;;
39822;SDS011;25499;53.958;10.970;2023-06-04T09:00:04;4.50;;;1.58;;
39822;SDS011;25499;53.958;10.970;2023-06-04T09:02:34;2.88;;;1.35;;
39822;SDS011;25499;53.958;10.970;2023-06-04T09:05:02;8.93;;;1.83;;
39822;SDS011;25499;53.958;10.970;2023-06-04T09:07:30;5.05;;;1.40;;
39822;SDS011;25499;53.958;10.970;2023-06-04T09:09:59;5.95;;;1.52;;
39822;SDS011;25499;53.958;10.970;2023-06-04T09:12:26;5.40;;;1.42;;
39822;SDS011;25499;53.958;10.970;2023-06-04T09:14:56;3.67;;;1.60;;
39822;SDS011;25499;53.958;10.970;2023-06-04T09:17:23;4.45;;;1.30;;
39822;SDS011;25499;53.958;10.970;2023-06-04T09:19:50;4.18;;;1.65;;
39822;SDS011;25499;53.958;10.970;2023-06-04T09:22:18;4.97;;;1.42;;
39822;SDS011;25499;53.958;10.970;2023-06-04T09:24:45;3.88;;;1.10;;
39822;SDS011;25499;53.958;10.970;2023-06-04T09:27:16;4.18;;;1.30;;
39822;SDS011;25499;53.958;10.970;2023-06-04T09:29:50;5.57;;;1.45;;
39822;SDS011;25499;53.958;10.970;2023-06-04T09:32:22;4.15;;;1.20;;
39822;SDS011;25499;53.958;10.970;2023-06-04T09:34:49;14.73;;;1.80;;
39822;SDS011;25499;53.958;10.970;2023-06-04T09:37:18;3.97;;;1.30;;
39822;SDS011;25499;53.958;10.970;2023-06-04T09:39:52;4.45;;;1.20;;
39822;SDS011;25499;53.958;10.970;2023-06-04T09:42:20;2.58;;;1.05;;
39822;SDS011;25499;53.958;10.970;2023-06-04T09:44:47;4.38;;;1.40;;
39822;SDS011;25499;53.958;10.970;2023-06-04T09:47:14;6.22;;;1.50;;
39822;SDS011;25499;53.958;10.970;2023-06-04T09:49:43;4.75;;;1.30;;
39822;SDS011;25499;53.958;10.970;2023-06-04T09:52:10;3.83;;;1.40;;
39822;SDS011;25499;53.958;10.970;2023-06-04T09:54:38;6.18;;;1.30;;
39822;SDS011;25499;53.958;10.970;2023-06-04T09:57:13;2.60;;;1.20;;
39822;SDS011;25499;53.958;10.970;2023-06-04T09:59:42;2.60;;;1.20;;
39822;SDS011;25499;53.958;10.970;2023-06-04T10:02:11;4.80;;;1.30;;
39822;SDS011;25499;53.958;10.970;2023-06-04T10:04:39;4.60;;;1.10;;
39822;SDS011;25499;53.958;10.970;2023-06-04T10:07:09;3.78;;;1.58;;
39822;SDS011;25499;53.958;10.970;2023-06-04T10:09:38;6.05;;;1.73;;
39822;SDS011;25499;53.958;10.970;2023-06-04T10:12:10;9.68;;;3.05;;
39822;SDS011;25499;53.958;10.970;2023-06-04T10:14:40;13.93;;;5.22;;
39822;SDS011;25499;53.958;10.970;2023-06-04T10:17:11;7.15;;;3.08;;
39822;SDS011;25499;53.958;10.970;2023-06-04T10:19:38;8.65;;;2.45;;
39822;SDS011;25499;53.958;10.970;2023-06-04T10:22:11;5.82;;;2.22;;
39822;SDS011;25499;53.958;10.970;2023-06-04T10:24:38;5.18;;;1.85;;
39822;SDS011;25499;53.958;10.970;2023-06-04T10:27:05;4.63;;;1.38;;
39822;SDS011;25499;53.958;10.970;2023-06-04T10:29:36;3.35;;;1.45;;
39822;SDS011;25499;53.958;10.970;2023-06-04T10:32:03;5.57;;;1.17;;
39822;SDS011;25499;53.958;10.970;2023-06-04T10:34:30;3.17;;;1.42;;
39822;SDS011;25499;53.958;10.970;2023-06-04T10:36:58;6.68;;;1.15;;
39822;SDS011;25499;53.958;10.970;2023-06-04T10:39:27;6.25;;;1.27;;
39822;SDS011;25499;53.958;10.970;2023-06-04T10:41:58;2.65;;;1.20;;
39822;SDS011;25499;53.958;10.970;2023-06-04T10:44:25;5.20;;;1.15;;
39822;SDS011;25499;53.958;10.970;2023-06-04T10:46:52;3.55;;;1.10;;
39822;SDS011;25499;53.958;10.970;2023-06-04T10:49:26;7.50;;;1.42;;
39822;SDS011;25499;53.958;10.970;2023-06-04T10:51:53;2.97;;;1.10;;
39822;SDS011;25499;53.958;10.970;2023-06-04T10:54:24;3.38;;;1.33;;
39822;SDS011;25499;53.958;10.970;2023-06-04T10:56:53;3.58;;;1.17;;
39822;SDS011;25499;53.958;10.970;2023-06-04T10:59:20;3.80;;;1.08;;
39822;SDS011;25499;53.958;10.970;2023-06-04T11:01:49;5.85;;;1.30;;
39822;SDS011;25499;53.958;10.970;2023-06-04T11:04:22;2.78;;;1.20;;
39822;SDS011;25499;53.958;10.970;2023-06-04T11:06:59;2.33;;;1.00;;
39822;SDS011;25499;53.958;10.970;2023-06-04T11:09:28;4.40;;;1.30;;
39822;SDS011;25499;53.958;10.970;2023-06-04T11:11:57;3.67;;;1.20;;
39822;SDS011;25499;53.958;10.970;2023-06-04T11:14:25;2.33;;;1.08;;
39822;SDS011;25499;53.958;10.970;2023-06-04T11:16:52;2.63;;;1.02;;
39822;SDS011;25499;53.958;10.970;2023-06-04T11:19:20;4.47;;;1.20;;
39822;SDS011;25499;53.958;10.970;2023-06-04T11:21:46;5.03;;;1.27;;
39822;SDS011;25499;53.958;10.970;2023-06-04T11:24:14;2.28;;;1.13;;
39822;SDS011;25499;53.958;10.970;2023-06-04T11:26:42;2.50;;;1.10;;
39822;SDS011;25499;53.958;10.970;2023-06-04T11:29:11;1.80;;;1.13;;
39822;SDS011;25499;53.958;10.970;2023-06-04T11:31:41;4.20;;;1.60;;
39822;SDS011;25499;53.958;10.970;2023-06-04T11:34:08;4.40;;;1.40;;
39822;SDS011;25499;53.958;10.970;2023-06-04T11:36:37;3.58;;;0.90;;
39822;SDS011;25499;53.958;10.970;2023-06-04T11:39:04;3.58;;;1.10;;
39822;SDS011;25499;53.958;10.970;2023-06-04T11:41:31;4.10;;;1.42;;
39822;SDS011;25499;53.958;10.970;2023-06-04T11:44:01;4.03;;;1.10;;
39822;SDS011;25499;53.958;10.970;2023-06-04T11:46:30;4.88;;;1.20;;
39822;SDS011;25499;53.958;10.970;2023-06-04T11:48:58;2.42;;;1.00;;
39822;SDS011;25499;53.958;10.970;2023-06-04T11:51:25;2.13;;;0.90;;
39822;SDS011;25499;53.958;10.970;2023-06-04T11:53:52;4.22;;;1.10;;
39822;SDS011;25499;53.958;10.970;2023-06-04T11:56:22;2.78;;;1.30;;
39822;SDS011;25499;53.958;10.970;2023-06-04T11:58:51;3.97;;;1.00;;
39822;SDS011;25499;53.958;10.970;2023-06-04T12:01:20;4.10;;;1.13;;
39822;SDS011;25499;53.958;10.970;2023-06-04T12:03:49;4.72;;;1.48;;
39822;SDS011;25499;53.958;10.970;2023-06-04T12:06:16;8.00;;;1.40;;
39822;SDS011;25499;53.958;10.970;2023-06-04T12:08:44;2.42;;;1.13;;
39822;SDS011;25499;53.958;10.970;2023-06-04T12:11:22;4.25;;;1.50;;
39822;SDS011;25499;53.958;10.970;2023-06-04T12:13:51;2.65;;;1.10;;
39822;SDS011;25499;53.958;10.970;2023-06-04T12:16:18;4.78;;;1.30;;
39822;SDS011;25499;53.958;10.970;2023-06-04T12:18:45;5.07;;;1.38;;
39822;SDS011;25499;53.958;10.970;2023-06-04T12:21:18;5.43;;;1.67;;
39822;SDS011;25499;53.958;10.970;2023-06-04T12:23:47;9.18;;;1.50;;
39822;SDS011;25499;53.958;10.970;2023-06-04T12:26:22;5.97;;;1.52;;
39822;SDS011;25499;53.958;10.970;2023-06-04T12:28:58;4.32;;;1.38;;
39822;SDS011;25499;53.958;10.970;2023-06-04T12:31:26;4.18;;;1.25;;
39822;SDS011;25499;53.958;10.970;2023-06-04T12:34:00;4.15;;;1.40;;
39822;SDS011;25499;53.958;10.970;2023-06-04T12:36:28;7.22;;;1.17;;
39822;SDS011;25499;53.958;10.970;2023-06-04T12:38:57;4.28;;;1.48;;
39822;SDS011;25499;53.958;10.970;2023-06-04T12:41:26;5.05;;;1.30;;
39822;SDS011;25499;53.958;10.970;2023-06-04T12:43:52;7.60;;;1.50;;
39822;SDS011;25499;53.958;10.970;2023-06-04T12:46:20;4.10;;;1.50;;
39822;SDS011;25499;53.958;10.970;2023-06-04T12:48:47;4.50;;;1.60;;
39822;SDS011;25499;53.958;10.970;2023-06-04T12:51:13;6.07;;;2.05;;
39822;SDS011;25499;53.958;10.970;2023-06-04T12:53:42;7.88;;;1.27;;
39822;SDS011;25499;53.958;10.970;2023-06-04T12:56:09;2.85;;;1.20;;
39822;SDS011;25499;53.958;10.970;2023-06-04T12:58:36;4.07;;;1.55;;
39822;SDS011;25499;53.958;10.970;2023-06-04T13:01:05;5.13;;;1.63;;
39822;SDS011;25499;53.958;10.970;2023-06-04T13:03:32;3.97;;;1.40;;
39822;SDS011;25499;53.958;10.970;2023-06-04T13:06:03;2.95;;;1.30;;
39822;SDS011;25499;53.958;10.970;2023-06-04T13:08:29;6.43;;;1.77;;
39822;SDS011;25499;53.958;10.970;2023-06-04T13:10:57;5.15;;;1.60;;
39822;SDS011;25499;53.958;10.970;2023-06-04T13:13:24;5.22;;;1.80;;
39822;SDS011;25499;53.958;10.970;2023-06-04T13:15:51;5.78;;;1.35;;
39822;SDS011;25499;53.958;10.970;2023-06-04T13:18:18;5.05;;;1.60;;
39822;SDS011;25499;53.958;10.970;2023-06-04T13:20:45;3.75;;;1.55;;
39822;SDS011;25499;53.958;10.970;2023-06-04T13:23:11;4.03;;;1.23;;
39822;SDS011;25499;53.958;10.970;2023-06-04T13:25:38;3.47;;;1.55;;
39822;SDS011;25499;53.958;10.970;2023-06-04T13:28:06;4.47;;;1.45;;
39822;SDS011;25499;53.958;10.970;2023-06-04T13:30:34;7.97;;;1.80;;
39822;SDS011;25499;53.958;10.970;2023-06-04T13:33:01;4.10;;;1.52;;
39822;SDS011;25499;53.958;10.970;2023-06-04T13:35:28;8.43;;;1.55;;
39822;SDS011;25499;53.958;10.970;2023-06-04T13:37:55;6.13;;;1.40;;
39822;SDS011;25499;53.958;10.970;2023-06-04T13:40:24;3.67;;;1.42;;
39822;SDS011;25499;53.958;10.970;2023-06-04T13:42:51;4.45;;;1.50;;
39822;SDS011;25499;53.958;10.970;2023-06-04T13:45:19;6.18;;;1.67;;
39822;SDS011;25499;53.958;10.970;2023-06-04T13:47:46;5.10;;;1.45;;
39822;SDS011;25499;53.958;10.970;2023-06-04T13:50:14;5.32;;;1.85;;
39822;SDS011;25499;53.958;10.970;2023-06-04T13:52:40;3.08;;;1.30;;
39822;SDS011;25499;53.958;10.970;2023-06-04T13:55:07;6.78;;;1.60;;
39822;SDS011;25499;53.958;10.970;2023-06-04T13:57:34;4.32;;;1.60;;
39822;SDS011;25499;53.958;10.970;2023-06-04T14:00:01;4.45;;;1.52;;
39822;SDS011;25499;53.958;10.970;2023-06-04T14:02:31;5.57;;;1.38;;
39822;SDS011;25499;53.958;10.970;2023-06-04T14:04:57;5.88;;;1.65;;
39822;SDS011;25499;53.958;10.970;2023-06-04T14:07:24;4.10;;;1.40;;
39822;SDS011;25499;53.958;10.970;2023-06-04T14:09:51;2.83;;;1.35;;
39822;SDS011;25499;53.958;10.970;2023-06-04T14:12:19;4.05;;;1.67;;
39822;SDS011;25499;53.958;10.970;2023-06-04T14:14:47;5.05;;;1.70;;
39822;SDS011;25499;53.958;10.970;2023-06-04T14:17:13;5.00;;;1.50;;
39822;SDS011;25499;53.958;10.970;2023-06-04T14:19:42;5.00;;;1.92;;
39822;SDS011;25499;53.958;10.970;2023-06-04T14:22:09;4.32;;;1.58;;
39822;SDS011;25499;53.958;10.970;2023-06-04T14:24:36;5.13;;;1.88;;
39822;SDS011;25499;53.958;10.970;2023-06-04T14:27:02;6.93;;;1.70;;
39822;SDS011;25499;53.958;10.970;2023-06-04T14:29:30;4.72;;;1.58;;
39822;SDS011;25499;53.958;10.970;2023-06-04T14:31:56;5.55;;;1.55;;
39822;SDS011;25499;53.958;10.970;2023-06-04T14:34:24;3.72;;;1.50;;
39822;SDS011;25499;53.958;10.970;2023-06-04T14:36:52;8.13;;;1.83;;
39822;SDS011;25499;53.958;10.970;2023-06-04T14:39:19;8.60;;;1.92;;
39822;SDS011;25499;53.958;10.970;2023-06-04T14:41:46;5.85;;;1.92;;
39822;SDS011;25499;53.958;10.970;2023-06-04T14:44:12;4.18;;;1.63;;
39822;SDS011;25499;53.958;10.970;2023-06-04T14:46:39;3.08;;;1.55;;
39822;SDS011;25499;53.958;10.970;2023-06-04T14:49:06;7.43;;;1.88;;
39822;SDS011;25499;53.958;10.970;2023-06-04T14:51:33;4.75;;;1.52;;
39822;SDS011;25499;53.958;10.970;2023-06-04T14:54:01;4.57;;;1.60;;
39822;SDS011;25499;53.958;10.970;2023-06-04T14:56:28;7.53;;;2.13;;
39822;SDS011;25499;53.958;10.970;2023-06-04T14:58:55;3.35;;;1.67;;
39822;SDS011;25499;53.958;10.970;2023-06-04T15:01:22;4.82;;;1.70;;
39822;SDS011;25499;53.958;10.970;2023-06-04T15:03:49;7.45;;;2.13;;
39822;SDS011;25499;53.958;10.970;2023-06-04T15:06:16;3.88;;;1.85;;
39822;SDS011;25499;53.958;10.970;2023-06-04T15:08:43;6.45;;;2.28;;
39822;SDS011;25499;53.958;10.970;2023-06-04T15:11:11;7.20;;;1.98;;
39822;SDS011;25499;53.958;10.970;2023-06-04T15:13:38;5.03;;;1.58;;
39822;SDS011;25499;53.958;10.970;2023-06-04T15:16:04;3.95;;;1.90;;
39822;SDS011;25499;53.958;10.970;2023-06-04T15:18:31;4.03;;;1.52;;
39822;SDS011;25499;53.958;10.970;2023-06-04T15:20:58;4.07;;;1.70;;
39822;SDS011;25499;53.958;10.970;2023-06-04T15:23:24;5.15;;;1.80;;
39822;SDS011;25499;53.958;10.970;2023-06-04T15:25:51;5.07;;;2.03;;
39822;SDS011;25499;53.958;10.970;2023-06-04T15:28:19;8.63;;;1.90;;
39822;SDS011;25499;53.958;10.970;2023-06-04T15:30:46;4.43;;;1.70;;
39822;SDS011;25499;53.958;10.970;2023-06-04T15:33:13;7.18;;;2.53;;
39822;SDS011;25499;53.958;10.970;2023-06-04T15:35:41;5.20;;;2.20;;
39822;SDS011;25499;53.958;10.970;2023-06-04T15:38:08;7.60;;;2.20;;
39822;SDS011;25499;53.958;10.970;2023-06-04T15:40:35;8.75;;;2.03;;
39822;SDS011;25499;53.958;10.970;2023-06-04T15:43:01;11.30;;;2.10;;
39822;SDS011;25499;53.958;10.970;2023-06-04T15:45:29;5.57;;;2.22;;
39822;SDS011;25499;53.958;10.970;2023-06-04T15:47:56;5.57;;;1.90;;
39822;SDS011;25499;53.958;10.970;2023-06-04T15:50:23;5.68;;;2.08;;
39822;SDS011;25499;53.958;10.970;2023-06-04T15:52:50;5.10;;;2.03;;
39822;SDS011;25499;53.958;10.970;2023-06-04T15:55:17;6.15;;;1.85;;
39822;SDS011;25499;53.958;10.970;2023-06-04T15:57:43;8.50;;;2.20;;
39822;SDS011;25499;53.958;10.970;2023-06-04T16:00:11;3.92;;;1.90;;
39822;SDS011;25499;53.958;10.970;2023-06-04T16:02:40;5.05;;;2.05;;
39822;SDS011;25499;53.958;10.970;2023-06-04T16:05:07;7.15;;;2.42;;
39822;SDS011;25499;53.958;10.970;2023-06-04T16:07:34;5.03;;;1.73;;
39822;SDS011;25499;53.958;10.970;2023-06-04T16:10:01;6.45;;;2.28;;
39822;SDS011;25499;53.958;10.970;2023-06-04T16:12:28;9.50;;;2.30;;
39822;SDS011;25499;53.958;10.970;2023-06-04T16:14:56;8.18;;;2.25;;
39822;SDS011;25499;53.958;10.970;2023-06-04T16:17:22;5.45;;;2.35;;
39822;SDS011;25499;53.958;10.970;2023-06-04T16:19:51;7.70;;;2.40;;
39822;SDS011;25499;53.958;10.970;2023-06-04T16:22:17;8.75;;;2.33;;
39822;SDS011;25499;53.958;10.970;2023-06-04T16:24:46;6.95;;;2.10;;
39822;SDS011;25499;53.958;10.970;2023-06-04T16:27:12;5.05;;;2.13;;
39822;SDS011;25499;53.958;10.970;2023-06-04T16:29:40;6.07;;;2.42;;
39822;SDS011;25499;53.958;10.970;2023-06-04T16:32:07;7.40;;;2.28;;
39822;SDS011;25499;53.958;10.970;2023-06-04T16:34:34;5.93;;;2.80;;
39822;SDS011;25499;53.958;10.970;2023-06-04T16:37:03;5.90;;;2.40;;
39822;SDS011;25499;53.958;10.970;2023-06-04T16:39:30;6.45;;;2.15;;
39822;SDS011;25499;53.958;10.970;2023-06-04T16:41:57;7.35;;;2.13;;
39822;SDS011;25499;53.958;10.970;2023-06-04T16:44:28;5.25;;;2.10;;
39822;SDS011;25499;53.958;10.970;2023-06-04T16:46:55;6.38;;;2.25;;
39822;SDS011;25499;53.958;10.970;2023-06-04T16:49:21;3.70;;;2.30;;
39822;SDS011;25499;53.958;10.970;2023-06-04T16:51:48;7.15;;;2.42;;
39822;SDS011;25499;53.958;10.970;2023-06-04T16:54:16;5.05;;;2.17;;
39822;SDS011;25499;53.958;10.970;2023-06-04T16:56:43;6.53;;;2.10;;
39822;SDS011;25499;53.958;10.970;2023-06-04T16:59:10;7.25;;;2.65;;
39822;SDS011;25499;53.958;10.970;2023-06-04T17:01:37;7.78;;;2.47;;
39822;SDS011;25499;53.958;10.970;2023-06-04T17:04:04;5.45;;;2.22;;
39822;SDS011;25499;53.958;10.970;2023-06-04T17:06:31;7.80;;;2.47;;
39822;SDS011;25499;53.958;10.970;2023-06-04T17:08:58;7.85;;;2.88;;
39822;SDS011;25499;53.958;10.970;2023-06-04T17:11:27;5.85;;;2.45;;
39822;SDS011;25499;53.958;10.970;2023-06-04T17:13:53;7.13;;;2.70;;
39822;SDS011;25499;53.958;10.970;2023-06-04T17:16:20;10.80;;;3.60;;
39822;SDS011;25499;53.958;10.970;2023-06-04T17:18:48;14.40;;;6.53;;
39822;SDS011;25499;53.958;10.970;2023-06-04T17:21:14;8.02;;;4.38;;
39822;SDS011;25499;53.958;10.970;2023-06-04T17:23:42;6.25;;;2.50;;
39822;SDS011;25499;53.958;10.970;2023-06-04T17:26:09;7.93;;;2.90;;
39822;SDS011;25499;53.958;10.970;2023-06-04T17:28:38;8.80;;;2.78;;
39822;SDS011;25499;53.958;10.970;2023-06-04T17:31:04;10.25;;;2.60;;
39822;SDS011;25499;53.958;10.970;2023-06-04T17:33:31;7.30;;;2.70;;
39822;SDS011;25499;53.958;10.970;2023-06-04T17:35:58;8.80;;;2.45;;
39822;SDS011;25499;53.958;10.970;2023-06-04T17:38:24;8.38;;;2.50;;
39822;SDS011;25499;53.958;10.970;2023-06-04T17:40:51;7.70;;;2.60;;
39822;SDS011;25499;53.958;10.970;2023-06-04T17:43:18;7.10;;;2.58;;
39822;SDS011;25499;53.958;10.970;2023-06-04T17:45:46;7.03;;;2.85;;
39822;SDS011;25499;53.958;10.970;2023-06-04T17:48:13;13.82;;;2.95;;
39822;SDS011;25499;53.958;10.970;2023-06-04T17:50:39;7.47;;;2.85;;
39822;SDS011;25499;53.958;10.970;2023-06-04T17:53:06;10.02;;;2.75;;
39822;SDS011;25499;53.958;10.970;2023-06-04T17:55:33;6.82;;;3.25;;
39822;SDS011;25499;53.958;10.970;2023-06-04T17:57:59;8.20;;;2.67;;
39822;SDS011;25499;53.958;10.970;2023-06-04T18:00:26;8.77;;;3.60;;
39822;SDS011;25499;53.958;10.970;2023-06-04T18:02:55;8.73;;;3.17;;
39822;SDS011;25499;53.958;10.970;2023-06-04T18:05:22;7.57;;;3.05;;
39822;SDS011;25499;53.958;10.970;2023-06-04T18:07:49;11.00;;;2.97;;
39822;SDS011;25499;53.958;10.970;2023-06-04T18:10:16;7.95;;;3.03;;
39822;SDS011;25499;53.958;10.970;2023-06-04T18:12:43;5.45;;;2.60;;
39822;SDS011;25499;53.958;10.970;2023-06-04T18:15:10;6.43;;;3.13;;
39822;SDS011;25499;53.958;10.970;2023-06-04T18:17:38;8.63;;;2.70;;
39822;SDS011;25499;53.958;10.970;2023-06-04T18:20:07;4.60;;;2.50;;
39822;SDS011;25499;53.958;10.970;2023-06-04T18:22:35;8.23;;;2.80;;
39822;SDS011;25499;53.958;10.970;2023-06-04T18:25:03;8.30;;;3.00;;
39822;SDS011;25499;53.958;10.970;2023-06-04T18:27:32;8.57;;;2.90;;
39822;SDS011;25499;53.958;10.970;2023-06-04T18:29:59;5.93;;;2.85;;
39822;SDS011;25499;53.958;10.970;2023-06-04T18:32:26;10.30;;;2.92;;
39822;SDS011;25499;53.958;10.970;2023-06-04T18:34:53;6.45;;;2.80;;
39822;SDS011;25499;53.958;10.970;2023-06-04T18:37:20;4.60;;;2.38;;
39822;SDS011;25499;53.958;10.970;2023-06-04T18:39:47;6.95;;;2.65;;
39822;SDS011;25499;53.958;10.970;2023-06-04T18:42:14;6.72;;;2.83;;
39822;SDS011;25499;53.958;10.970;2023-06-04T18:44:41;6.68;;;2.83;;
39822;SDS011;25499;53.958;10.970;2023-06-04T18:47:08;5.03;;;2.55;;
39822;SDS011;25499;53.958;10.970;2023-06-04T18:49:35;6.82;;;2.55;;
39822;SDS011;25499;53.958;10.970;2023-06-04T18:52:02;5.43;;;2.60;;
39822;SDS011;25499;53.958;10.970;2023-06-04T18:54:31;7.15;;;2.85;;
39822;SDS011;25499;53.958;10.970;2023-06-04T18:56:57;6.15;;;2.80;;
39822;SDS011;25499;53.958;10.970;2023-06-04T18:59:24;7.20;;;2.95;;
39822;SDS011;25499;53.958;10.970;2023-06-04T19:01:51;12.05;;;2.75;;
39822;SDS011;25499;53.958;10.970;2023-06-04T19:04:17;3.83;;;2.47;;
39822;SDS011;25499;53.958;10.970;2023-06-04T19:06:44;5.32;;;2.67;;
39822;SDS011;25499;53.958;10.970;2023-06-04T19:09:11;7.05;;;2.70;;
39822;SDS011;25499;53.958;10.970;2023-06-04T19:11:39;5.63;;;2.65;;
39822;SDS011;25499;53.958;10.970;2023-06-04T19:14:06;4.85;;;2.60;;
39822;SDS011;25499;53.958;10.970;2023-06-04T19:16:33;5.20;;;2.67;;
39822;SDS011;25499;53.958;10.970;2023-06-04T19:19:00;5.35;;;2.38;;
39822;SDS011;25499;53.958;10.970;2023-06-04T19:21:26;6.40;;;2.72;;
39822;SDS011;25499;53.958;10.970;2023-06-04T19:23:53;5.22;;;2.53;;
39822;SDS011;25499;53.958;10.970;2023-06-04T19:26:20;4.90;;;2.60;;
39822;SDS011;25499;53.958;10.970;2023-06-04T19:28:48;7.25;;;2.92;;
39822;SDS011;25499;53.958;10.970;2023-06-04T19:31:15;6.88;;;2.65;;
39822;SDS011;25499;53.958;10.970;2023-06-04T19:33:42;7.13;;;2.60;;
39822;SDS011;25499;53.958;10.970;2023-06-04T19:36:09;4.90;;;2.83;;
39822;SDS011;25499;53.958;10.970;2023-06-04T19:38:35;5.60;;;2.67;;
39822;SDS011;25499;53.958;10.970;2023-06-04T19:41:03;4.63;;;2.70;;
39822;SDS011;25499;53.958;10.970;2023-06-04T19:43:29;7.28;;;2.70;;
39822;SDS011;25499;53.958;10.970;2023-06-04T19:45:57;5.43;;;2.80;;
39822;SDS011;25499;53.958;10.970;2023-06-04T19:48:26;4.68;;;2.47;;
39822;SDS011;25499;53.958;10.970;2023-06-04T19:50:53;5.25;;;3.15;;
39822;SDS011;25499;53.958;10.970;2023-06-04T19:53:20;4.60;;;2.80;;
39822;SDS011;25499;53.958;10.970;2023-06-04T19:55:46;5.05;;;2.25;;
39822;SDS011;25499;53.958;10.970;2023-06-04T19:58:13;3.72;;;2.42;;
39822;SDS011;25499;53.958;10.970;2023-06-04T20:00:40;4.22;;;2.70;;
39822;SDS011;25499;53.958;10.970;2023-06-04T20:03:10;4.90;;;2.50;;
39822;SDS011;25499;53.958;10.970;2023-06-04T20:05:36;6.82;;;2.80;;